Charles City, IA

1:35 PM CDT on October 17, 2019 (GMT -0500)
Charles City Municipal

Weather History for KCCY - September, 2019

Change the Weather History Date:

Thursday, September 19, 2019

  Actual Average Record
Temperature  
Mean Temperature 71 °F -  
Max Temperature 78 °F 74 °F 93 °F (1948)
Min Temperature 64 °F 51 °F 32 °F (1991)
Cooling Degree Days 6    
Growing Degree Days 21 (Base 50)    
Moisture  
Dew Point 68 °F    
Average Humidity 92    
Maximum Humidity 100    
Minimum Humidity 74    
Precipitation  
Precipitation 2.00 in - - ()
Sea Level Pressure  
Sea Level Pressure 30.02 in    
Wind  
Wind Speed 8 mph (SSE)    
Max Wind Speed 15 mph    
Max Gust Speed 26 mph    
Visibility 9 miles    
Events Rain    
Averages and records for this station are not official NWS values.
T = Trace of Precipitation, MM = Missing Value Source: NWS Daily Summary

Daily Weather History Graph

Daily Weather History Graph

Search for Another Location

Airport or City:

Astronomy

Sep. 19, 2019 Rise Set
Actual Time 6:54 AM CDT 7:13 PM CDT
Civil Twilight 6:25 AM CDT 7:41 PM CDT
Nautical Twilight 5:52 AM CDT 8:15 PM CDT
Astronomical Twilight 5:17 AM CDT 8:49 PM CDT
Moon 10:14 PM CDT (9/19) 12:05 PM CDT (9/19)
Length of Visible Light 13h 16m
Length of Day
12h 19m
Waning Gibbous, 74% of the Moon is Illuminated
Sep 19
Waning Gibbous
Sep 21
Last Quarter
Sep 28
New
Oct 5
First Quarter
Oct 13
Full

Hourly Weather History & Observations

Time (CDT) Temp. Dew Point Humidity Pressure Visibility Wind Dir Wind Speed Gust Speed Precip Events Conditions
12:15 AM 68.0 °F 68.0 °F 100% 29.99 in 9.0 mi SE 5.8 mph - N/A   Mostly Cloudy
12:35 AM 68.0 °F 68.0 °F 100% 29.99 in 7.0 mi SE 5.8 mph - N/A   Mostly Cloudy
12:55 AM 68.0 °F 68.0 °F 100% 29.99 in 7.0 mi SSE 5.8 mph - N/A   Mostly Cloudy
1:15 AM 69.8 °F 68.0 °F 94% 29.98 in 7.0 mi SE 6.9 mph - N/A   Overcast
1:35 AM 69.8 °F 68.0 °F 94% 29.98 in 9.0 mi SE 8.1 mph - N/A   Overcast
1:55 AM 69.8 °F 68.0 °F 94% 29.97 in 10.0 mi SSE 9.2 mph - N/A   Overcast
2:15 AM 69.8 °F 68.0 °F 94% 29.97 in 10.0 mi SSE 10.4 mph - N/A   Overcast
2:35 AM 69.8 °F 68.0 °F 94% 29.96 in 10.0 mi South 10.4 mph - N/A   Overcast
2:55 AM 69.8 °F 68.0 °F 94% 29.94 in 10.0 mi South 11.5 mph - N/A   Overcast
3:15 AM 69.8 °F 68.0 °F 94% 29.95 in 10.0 mi South 9.2 mph - N/A   Mostly Cloudy
3:35 AM 69.8 °F 68.0 °F 94% 29.93 in 10.0 mi South 10.4 mph - N/A   Mostly Cloudy
3:55 AM 69.8 °F 68.0 °F 94% 29.93 in 8.0 mi South 9.2 mph - 0.01 in   Overcast
4:15 AM 69.8 °F 68.0 °F 94% 29.93 in 6.0 mi SE 6.9 mph - N/A   Overcast
4:35 AM 68.0 °F 68.0 °F 100% 29.98 in 4.0 mi NW 8.1 mph 26.5 mph N/A Rain Light Rain
4:55 AM 68.0 °F 68.0 °F 100% 30.01 in 0.2 mi NNW 15.0 mph 21.9 mph 1.06 in Rain Heavy Rain
5:15 AM 68.0 °F 68.0 °F 100% 30.02 in 1.0 mi ENE 11.5 mph 18.4 mph N/A Rain Heavy Rain
5:35 AM 68.0 °F 68.0 °F 100% 30.03 in 2.0 mi ENE 9.2 mph - N/A Rain Heavy Rain
5:55 AM 68.0 °F 68.0 °F 100% 30.02 in 5.0 mi ENE 10.4 mph - 0.62 in Rain Light Rain
6:15 AM - - N/A% 30.05 in - NW 11.5 mph - N/A   Unknown
6:35 AM 68.0 °F 66.2 °F 94% 30.00 in 2.0 mi Calm Calm 11.5 mph N/A Rain Heavy Rain
6:55 AM 68.0 °F 66.2 °F 94% 30.03 in 7.0 mi Calm Calm - 0.24 in Rain Rain
7:15 AM 68.0 °F 66.2 °F 94% 30.05 in 10.0 mi South 10.4 mph - N/A   Overcast
7:35 AM 68.0 °F 66.2 °F 94% 30.04 in 10.0 mi SSW 6.9 mph - N/A   Mostly Cloudy
7:55 AM 68.0 °F 66.2 °F 94% 30.06 in 4.0 mi SSW 6.9 mph - 0.02 in Rain Light Rain
8:15 AM 66.2 °F 66.2 °F 100% 30.06 in 4.0 mi SSW 4.6 mph 11.5 mph N/A Rain Light Rain
8:55 AM 68.0 °F 68.0 °F 100% 30.03 in 9.0 mi SE 5.8 mph - 0.05 in   Clear
9:15 AM 68.0 °F 68.0 °F 100% 30.03 in 8.0 mi ESE 11.5 mph - N/A   Partly Cloudy
9:35 AM 68.0 °F 68.0 °F 100% 30.03 in 10.0 mi ESE 12.7 mph - N/A   Mostly Cloudy
9:55 AM 68.0 °F 68.0 °F 100% 30.04 in 9.0 mi ESE 15.0 mph - N/A   Overcast
10:15 AM 68.0 °F 68.0 °F 100% 30.04 in 10.0 mi ESE 10.4 mph - N/A   Overcast
10:35 AM 69.8 °F 69.8 °F 100% 30.06 in 10.0 mi SE 9.2 mph - N/A   Overcast
10:55 AM 69.8 °F 69.8 °F 100% 30.06 in 10.0 mi SE 9.2 mph - N/A   Overcast
11:15 AM 71.6 °F 69.8 °F 94% 30.05 in 10.0 mi SE 9.2 mph - N/A   Overcast
11:35 AM 71.6 °F 69.8 °F 94% 30.06 in 10.0 mi SSE 10.4 mph 16.1 mph N/A   Overcast
11:55 AM 71.6 °F 69.8 °F 94% 30.05 in 10.0 mi SSE 9.2 mph 16.1 mph N/A   Overcast
12:15 PM 71.6 °F 68.0 °F 88% 30.05 in 10.0 mi South 11.5 mph 17.3 mph N/A   Mostly Cloudy
12:35 PM 71.6 °F 69.8 °F 94% 30.04 in 10.0 mi SSE 8.1 mph - N/A   Mostly Cloudy
12:55 PM 73.4 °F 69.8 °F 88% 30.03 in 10.0 mi SSE 10.4 mph 17.3 mph N/A   Mostly Cloudy
1:15 PM 73.4 °F 69.8 °F 88% 30.03 in 10.0 mi South 8.1 mph 13.8 mph N/A   Scattered Clouds
1:35 PM 73.4 °F 69.8 °F 88% 30.03 in 10.0 mi South 10.4 mph - N/A   Scattered Clouds
1:55 PM 75.2 °F 69.8 °F 83% 30.03 in 10.0 mi South 10.4 mph 17.3 mph N/A   Partly Cloudy
2:15 PM 77.0 °F 69.8 °F 78% 30.02 in 10.0 mi South 9.2 mph - N/A   Partly Cloudy
2:35 PM 77.0 °F 69.8 °F 78% 30.01 in 10.0 mi SSW 10.4 mph - N/A   Clear
2:55 PM 77.0 °F 69.8 °F 78% 30.02 in 10.0 mi SSW 9.2 mph - N/A   Clear
3:15 PM 78.8 °F 69.8 °F 74% 30.02 in 10.0 mi SSW 10.4 mph - N/A   Clear
3:35 PM 77.0 °F 69.8 °F 78% 30.01 in 10.0 mi SSW 11.5 mph - N/A   Partly Cloudy
3:55 PM 77.0 °F 69.8 °F 78% 30.01 in 10.0 mi SSW 9.2 mph - N/A   Scattered Clouds
4:15 PM 77.0 °F 69.8 °F 78% 30.01 in 10.0 mi South 9.2 mph - N/A   Mostly Cloudy
4:35 PM 77.0 °F 69.8 °F 78% 30.01 in 10.0 mi SSW 11.5 mph - N/A   Mostly Cloudy
4:55 PM 77.0 °F 68.0 °F 74% 30.01 in 10.0 mi South 8.1 mph 15.0 mph N/A   Overcast
5:15 PM 78.8 °F 69.8 °F 74% 30.01 in 10.0 mi South 8.1 mph - N/A   Mostly Cloudy
5:35 PM 77.0 °F 69.8 °F 78% 30.02 in 10.0 mi SSW 8.1 mph - N/A   Mostly Cloudy
5:55 PM 77.0 °F 68.0 °F 74% 30.01 in 10.0 mi South 6.9 mph - N/A   Partly Cloudy
6:15 PM 75.2 °F 69.8 °F 83% 30.01 in 10.0 mi South 4.6 mph - N/A   Scattered Clouds
6:35 PM 75.2 °F 69.8 °F 83% 30.02 in 10.0 mi South 5.8 mph - N/A   Partly Cloudy
6:55 PM 73.4 °F 69.8 °F 88% 30.02 in 10.0 mi SSE 5.8 mph - N/A   Clear
7:15 PM 71.6 °F 69.8 °F 94% 30.02 in 10.0 mi SSE 5.8 mph - N/A   Clear
7:35 PM 71.6 °F 68.0 °F 88% 30.03 in 10.0 mi SSE 5.8 mph - N/A   Clear
7:55 PM 69.8 °F 68.0 °F 94% 30.03 in 10.0 mi SSE 4.6 mph - N/A   Clear
8:15 PM 69.8 °F 68.0 °F 94% 30.03 in 10.0 mi ESE 3.5 mph - N/A   Clear
8:35 PM 68.0 °F 68.0 °F 100% 30.04 in 10.0 mi ESE 4.6 mph - N/A   Clear
9:15 PM 66.2 °F 66.2 °F 100% 30.05 in 10.0 mi East 4.6 mph - N/A   Clear
9:35 PM 66.2 °F 66.2 °F 100% 30.04 in 10.0 mi ESE 4.6 mph - N/A   Clear
9:55 PM 68.0 °F 66.2 °F 94% 30.05 in 10.0 mi SE 5.8 mph - N/A   Clear
10:15 PM 66.2 °F 66.2 °F 100% 30.05 in 10.0 mi SE 4.6 mph - N/A   Clear
10:35 PM 66.2 °F 66.2 °F 100% 30.05 in 10.0 mi SE 4.6 mph - N/A   Clear
10:55 PM 66.2 °F 66.2 °F 100% 30.05 in 10.0 mi East 4.6 mph - N/A   Clear
11:15 PM 66.2 °F 66.2 °F 100% 30.05 in 10.0 mi ESE 4.6 mph - N/A   Clear
11:35 PM 64.4 °F 64.4 °F 100% 30.05 in 10.0 mi ESE 4.6 mph - N/A   Clear
11:55 PM 64.4 °F 64.4 °F 100% 30.04 in 10.0 mi Calm Calm - N/A   Clear